sensor_id;sensor_type;location;lat;lon;timestamp;temperature;humidity
22974;DHT22;11653;50.848;4.584;2022-09-29T00:00:28;7.60;99.90
22974;DHT22;11653;50.848;4.584;2022-09-29T00:02:53;7.60;99.90
22974;DHT22;11653;50.848;4.584;2022-09-29T00:05:20;7.60;99.90
22974;DHT22;11653;50.848;4.584;2022-09-29T00:07:45;7.60;99.90
22974;DHT22;11653;50.848;4.584;2022-09-29T00:10:11;7.60;99.90
22974;DHT22;11653;50.848;4.584;2022-09-29T00:12:37;7.60;99.90
22974;DHT22;11653;50.848;4.584;2022-09-29T00:15:04;7.50;99.90
22974;DHT22;11653;50.848;4.584;2022-09-29T00:17:30;7.40;99.90
22974;DHT22;11653;50.848;4.584;2022-09-29T00:19:55;7.30;99.90
22974;DHT22;11653;50.848;4.584;2022-09-29T00:22:21;7.30;99.90
22974;DHT22;11653;50.848;4.584;2022-09-29T00:24:47;7.30;99.90
22974;DHT22;11653;50.848;4.584;2022-09-29T00:27:14;7.30;99.90
22974;DHT22;11653;50.848;4.584;2022-09-29T00:29:40;7.30;99.90
22974;DHT22;11653;50.848;4.584;2022-09-29T00:32:05;7.30;99.90
22974;DHT22;11653;50.848;4.584;2022-09-29T00:34:31;7.30;99.90
22974;DHT22;11653;50.848;4.584;2022-09-29T00:36:57;7.30;99.90
22974;DHT22;11653;50.848;4.584;2022-09-29T00:39:22;7.20;99.90
22974;DHT22;11653;50.848;4.584;2022-09-29T00:41:48;7.20;99.90
22974;DHT22;11653;50.848;4.584;2022-09-29T00:46:47;7.20;99.90
22974;DHT22;11653;50.848;4.584;2022-09-29T00:49:35;7.20;99.90
22974;DHT22;11653;50.848;4.584;2022-09-29T00:52:12;7.30;99.90
22974;DHT22;11653;50.848;4.584;2022-09-29T00:54:43;7.20;99.90
22974;DHT22;11653;50.848;4.584;2022-09-29T00:57:12;7.20;99.90
22974;DHT22;11653;50.848;4.584;2022-09-29T00:59:52;7.20;99.90
22974;DHT22;11653;50.848;4.584;2022-09-29T01:02:20;7.20;99.90
22974;DHT22;11653;50.848;4.584;2022-09-29T01:04:47;7.20;99.90
22974;DHT22;11653;50.848;4.584;2022-09-29T01:07:14;7.20;99.90
22974;DHT22;11653;50.848;4.584;2022-09-29T01:09:40;7.10;99.90
22974;DHT22;11653;50.848;4.584;2022-09-29T01:12:07;7.10;99.90
22974;DHT22;11653;50.848;4.584;2022-09-29T01:14:34;7.10;99.90
22974;DHT22;11653;50.848;4.584;2022-09-29T01:17:01;7.10;99.90
22974;DHT22;11653;50.848;4.584;2022-09-29T01:19:35;7.00;99.90
22974;DHT22;11653;50.848;4.584;2022-09-29T01:30:11;6.90;99.90
22974;DHT22;11653;50.848;4.584;2022-09-29T01:32:53;6.90;99.90
22974;DHT22;11653;50.848;4.584;2022-09-29T01:43:45;6.90;99.90
22974;DHT22;11653;50.848;4.584;2022-09-29T01:48:49;6.70;99.90
22974;DHT22;11653;50.848;4.584;2022-09-29T01:51:23;6.80;99.90
22974;DHT22;11653;50.848;4.584;2022-09-29T01:53:56;6.80;99.90
22974;DHT22;11653;50.848;4.584;2022-09-29T01:56:52;6.80;99.90
22974;DHT22;11653;50.848;4.584;2022-09-29T01:59:37;6.60;99.90
22974;DHT22;11653;50.848;4.584;2022-09-29T02:02:10;6.50;99.90
22974;DHT22;11653;50.848;4.584;2022-09-29T02:04:45;6.50;99.90
22974;DHT22;11653;50.848;4.584;2022-09-29T02:07:25;6.50;99.90
22974;DHT22;11653;50.848;4.584;2022-09-29T02:10:00;6.60;99.90
22974;DHT22;11653;50.848;4.584;2022-09-29T02:12:31;6.60;99.90
22974;DHT22;11653;50.848;4.584;2022-09-29T02:14:57;6.60;99.90
22974;DHT22;11653;50.848;4.584;2022-09-29T02:17:33;6.50;99.90
22974;DHT22;11653;50.848;4.584;2022-09-29T02:20:02;6.60;99.90
22974;DHT22;11653;50.848;4.584;2022-09-29T02:22:28;6.50;99.90
22974;DHT22;11653;50.848;4.584;2022-09-29T02:24:56;6.50;99.90
22974;DHT22;11653;50.848;4.584;2022-09-29T02:27:24;6.50;99.90
22974;DHT22;11653;50.848;4.584;2022-09-29T02:29:51;6.50;99.90
22974;DHT22;11653;50.848;4.584;2022-09-29T02:32:17;6.50;99.90
22974;DHT22;11653;50.848;4.584;2022-09-29T02:34:46;6.50;99.90
22974;DHT22;11653;50.848;4.584;2022-09-29T02:37:34;6.50;99.90
22974;DHT22;11653;50.848;4.584;2022-09-29T02:40:25;6.50;99.90
22974;DHT22;11653;50.848;4.584;2022-09-29T02:51:26;6.30;99.90
22974;DHT22;11653;50.848;4.584;2022-09-29T03:00:02;6.30;99.90
22974;DHT22;11653;50.848;4.584;2022-09-29T03:02:33;6.20;99.90
22974;DHT22;11653;50.848;4.584;2022-09-29T03:04:59;6.20;99.90
22974;DHT22;11653;50.848;4.584;2022-09-29T03:07:25;6.10;99.90
22974;DHT22;11653;50.848;4.584;2022-09-29T03:09:51;6.20;99.90
22974;DHT22;11653;50.848;4.584;2022-09-29T03:12:16;6.20;99.90
22974;DHT22;11653;50.848;4.584;2022-09-29T03:14:42;6.20;99.90
22974;DHT22;11653;50.848;4.584;2022-09-29T03:17:08;6.20;99.90
22974;DHT22;11653;50.848;4.584;2022-09-29T03:19:34;6.30;99.90
22974;DHT22;11653;50.848;4.584;2022-09-29T03:22:00;6.20;99.90
22974;DHT22;11653;50.848;4.584;2022-09-29T03:24:25;6.30;99.90
22974;DHT22;11653;50.848;4.584;2022-09-29T03:26:51;6.30;99.90
22974;DHT22;11653;50.848;4.584;2022-09-29T03:29:17;6.20;99.90
22974;DHT22;11653;50.848;4.584;2022-09-29T03:31:42;6.20;99.90
22974;DHT22;11653;50.848;4.584;2022-09-29T03:34:08;6.20;99.90
22974;DHT22;11653;50.848;4.584;2022-09-29T03:36:34;6.10;99.90
22974;DHT22;11653;50.848;4.584;2022-09-29T03:38:59;6.20;99.90
22974;DHT22;11653;50.848;4.584;2022-09-29T03:41:25;6.30;99.90
22974;DHT22;11653;50.848;4.584;2022-09-29T03:43:51;6.20;99.90
22974;DHT22;11653;50.848;4.584;2022-09-29T03:46:16;6.20;99.90
22974;DHT22;11653;50.848;4.584;2022-09-29T03:48:43;6.10;99.90
22974;DHT22;11653;50.848;4.584;2022-09-29T03:51:08;6.10;99.90
22974;DHT22;11653;50.848;4.584;2022-09-29T03:53:35;6.10;99.90
22974;DHT22;11653;50.848;4.584;2022-09-29T03:56:01;6.10;99.90
22974;DHT22;11653;50.848;4.584;2022-09-29T03:58:27;6.10;99.90
22974;DHT22;11653;50.848;4.584;2022-09-29T04:00:53;6.10;99.90
22974;DHT22;11653;50.848;4.584;2022-09-29T04:03:19;6.10;99.90
22974;DHT22;11653;50.848;4.584;2022-09-29T04:05:46;6.10;99.90
22974;DHT22;11653;50.848;4.584;2022-09-29T04:08:12;6.10;99.90
22974;DHT22;11653;50.848;4.584;2022-09-29T04:10:39;6.10;99.90
22974;DHT22;11653;50.848;4.584;2022-09-29T04:13:05;6.10;99.90
22974;DHT22;11653;50.848;4.584;2022-09-29T04:15:31;6.10;99.90
22974;DHT22;11653;50.848;4.584;2022-09-29T04:17:57;6.10;99.90
22974;DHT22;11653;50.848;4.584;2022-09-29T04:20:22;6.10;99.90
22974;DHT22;11653;50.848;4.584;2022-09-29T04:22:50;6.20;99.90
22974;DHT22;11653;50.848;4.584;2022-09-29T04:25:16;6.20;99.90
22974;DHT22;11653;50.848;4.584;2022-09-29T04:27:42;6.10;99.90
22974;DHT22;11653;50.848;4.584;2022-09-29T04:30:08;6.00;99.90
22974;DHT22;11653;50.848;4.584;2022-09-29T04:32:34;6.00;99.90
22974;DHT22;11653;50.848;4.584;2022-09-29T04:35:00;6.00;99.90
22974;DHT22;11653;50.848;4.584;2022-09-29T04:37:26;6.10;99.90
22974;DHT22;11653;50.848;4.584;2022-09-29T04:39:52;6.10;99.90
22974;DHT22;11653;50.848;4.584;2022-09-29T04:42:19;6.10;99.90
22974;DHT22;11653;50.848;4.584;2022-09-29T04:44:45;6.20;99.90
22974;DHT22;11653;50.848;4.584;2022-09-29T04:47:11;6.20;99.90
22974;DHT22;11653;50.848;4.584;2022-09-29T04:49:37;6.20;99.90
22974;DHT22;11653;50.848;4.584;2022-09-29T04:52:03;6.20;99.90
22974;DHT22;11653;50.848;4.584;2022-09-29T04:54:33;6.10;99.90
22974;DHT22;11653;50.848;4.584;2022-09-29T04:56:59;6.30;99.90
22974;DHT22;11653;50.848;4.584;2022-09-29T04:59:26;6.20;99.90
22974;DHT22;11653;50.848;4.584;2022-09-29T05:01:52;6.20;99.90
22974;DHT22;11653;50.848;4.584;2022-09-29T05:04:18;6.20;99.90
22974;DHT22;11653;50.848;4.584;2022-09-29T05:06:44;6.20;99.90
22974;DHT22;11653;50.848;4.584;2022-09-29T05:09:10;6.20;99.90
22974;DHT22;11653;50.848;4.584;2022-09-29T05:11:35;6.10;99.90
22974;DHT22;11653;50.848;4.584;2022-09-29T05:14:01;6.20;99.90
22974;DHT22;11653;50.848;4.584;2022-09-29T05:16:26;6.20;99.90
22974;DHT22;11653;50.848;4.584;2022-09-29T05:18:52;6.20;99.90
22974;DHT22;11653;50.848;4.584;2022-09-29T05:21:18;6.10;99.90
22974;DHT22;11653;50.848;4.584;2022-09-29T05:23:43;6.10;99.90
22974;DHT22;11653;50.848;4.584;2022-09-29T05:26:10;6.10;99.90
22974;DHT22;11653;50.848;4.584;2022-09-29T05:28:41;6.10;99.90
22974;DHT22;11653;50.848;4.584;2022-09-29T05:31:08;6.10;99.90
22974;DHT22;11653;50.848;4.584;2022-09-29T05:33:35;6.20;99.90
22974;DHT22;11653;50.848;4.584;2022-09-29T05:36:03;6.20;99.90
22974;DHT22;11653;50.848;4.584;2022-09-29T05:38:31;6.10;99.90
22974;DHT22;11653;50.848;4.584;2022-09-29T05:40:57;6.20;99.90
22974;DHT22;11653;50.848;4.584;2022-09-29T05:43:23;6.10;99.90
22974;DHT22;11653;50.848;4.584;2022-09-29T05:45:50;6.20;99.90
22974;DHT22;11653;50.848;4.584;2022-09-29T05:48:16;6.20;99.90
22974;DHT22;11653;50.848;4.584;2022-09-29T05:50:42;6.30;99.90
22974;DHT22;11653;50.848;4.584;2022-09-29T05:53:08;6.30;99.90
22974;DHT22;11653;50.848;4.584;2022-09-29T05:55:36;6.40;99.90
22974;DHT22;11653;50.848;4.584;2022-09-29T05:58:02;6.30;99.90
22974;DHT22;11653;50.848;4.584;2022-09-29T06:00:27;6.30;99.90
22974;DHT22;11653;50.848;4.584;2022-09-29T06:02:57;6.40;99.90
22974;DHT22;11653;50.848;4.584;2022-09-29T06:05:23;6.40;99.90
22974;DHT22;11653;50.848;4.584;2022-09-29T06:07:51;6.40;99.90
22974;DHT22;11653;50.848;4.584;2022-09-29T06:10:16;6.50;99.90
22974;DHT22;11653;50.848;4.584;2022-09-29T06:12:42;6.60;99.90
22974;DHT22;11653;50.848;4.584;2022-09-29T06:15:10;6.70;99.90
22974;DHT22;11653;50.848;4.584;2022-09-29T06:17:36;7.00;99.90
22974;DHT22;11653;50.848;4.584;2022-09-29T06:20:03;7.40;99.90
22974;DHT22;11653;50.848;4.584;2022-09-29T06:22:29;7.80;99.90
22974;DHT22;11653;50.848;4.584;2022-09-29T06:24:55;8.00;99.90
22974;DHT22;11653;50.848;4.584;2022-09-29T06:27:21;8.30;99.90
22974;DHT22;11653;50.848;4.584;2022-09-29T06:29:47;8.40;99.90
22974;DHT22;11653;50.848;4.584;2022-09-29T06:32:12;8.60;99.90
22974;DHT22;11653;50.848;4.584;2022-09-29T06:34:38;8.70;99.90
22974;DHT22;11653;50.848;4.584;2022-09-29T06:37:25;8.70;99.90
22974;DHT22;11653;50.848;4.584;2022-09-29T06:40:01;8.90;99.90
22974;DHT22;11653;50.848;4.584;2022-09-29T06:42:27;9.00;99.90
22974;DHT22;11653;50.848;4.584;2022-09-29T06:44:53;9.10;99.90
22974;DHT22;11653;50.848;4.584;2022-09-29T06:47:19;9.20;99.90
22974;DHT22;11653;50.848;4.584;2022-09-29T06:49:45;9.30;99.90
22974;DHT22;11653;50.848;4.584;2022-09-29T06:52:10;9.40;99.90
22974;DHT22;11653;50.848;4.584;2022-09-29T06:54:36;9.50;99.90
22974;DHT22;11653;50.848;4.584;2022-09-29T06:57:02;9.70;99.90
22974;DHT22;11653;50.848;4.584;2022-09-29T06:59:27;9.80;99.90
22974;DHT22;11653;50.848;4.584;2022-09-29T07:01:53;10.00;99.90
22974;DHT22;11653;50.848;4.584;2022-09-29T07:04:19;10.20;99.90
22974;DHT22;11653;50.848;4.584;2022-09-29T07:06:48;10.40;99.90
22974;DHT22;11653;50.848;4.584;2022-09-29T07:09:14;10.60;99.90
22974;DHT22;11653;50.848;4.584;2022-09-29T07:11:44;10.70;99.90
22974;DHT22;11653;50.848;4.584;2022-09-29T07:14:12;10.90;99.90
22974;DHT22;11653;50.848;4.584;2022-09-29T07:16:38;11.10;99.90
22974;DHT22;11653;50.848;4.584;2022-09-29T07:19:04;11.30;99.90
22974;DHT22;11653;50.848;4.584;2022-09-29T07:21:30;11.50;99.90
22974;DHT22;11653;50.848;4.584;2022-09-29T07:23:55;11.60;99.90
22974;DHT22;11653;50.848;4.584;2022-09-29T07:26:21;11.80;99.90
22974;DHT22;11653;50.848;4.584;2022-09-29T07:28:47;11.90;99.90
22974;DHT22;11653;50.848;4.584;2022-09-29T07:31:18;12.20;99.90
22974;DHT22;11653;50.848;4.584;2022-09-29T07:33:47;12.50;99.90
22974;DHT22;11653;50.848;4.584;2022-09-29T07:36:14;13.10;99.90
22974;DHT22;11653;50.848;4.584;2022-09-29T07:38:40;13.90;99.90
22974;DHT22;11653;50.848;4.584;2022-09-29T07:41:09;14.60;99.90
22974;DHT22;11653;50.848;4.584;2022-09-29T07:43:36;15.10;99.90
22974;DHT22;11653;50.848;4.584;2022-09-29T07:46:02;15.40;99.90
22974;DHT22;11653;50.848;4.584;2022-09-29T07:48:29;15.40;99.90
22974;DHT22;11653;50.848;4.584;2022-09-29T07:53:27;15.60;99.90
22974;DHT22;11653;50.848;4.584;2022-09-29T07:55:53;15.90;99.90
22974;DHT22;11653;50.848;4.584;2022-09-29T07:58:21;16.40;99.90
22974;DHT22;11653;50.848;4.584;2022-09-29T08:00:53;16.90;99.90
22974;DHT22;11653;50.848;4.584;2022-09-29T08:03:19;17.40;99.90
22974;DHT22;11653;50.848;4.584;2022-09-29T08:05:45;18.00;99.90
22974;DHT22;11653;50.848;4.584;2022-09-29T08:08:10;18.80;99.90
22974;DHT22;11653;50.848;4.584;2022-09-29T08:10:36;19.90;99.60
22974;DHT22;11653;50.848;4.584;2022-09-29T08:13:01;20.90;96.70
22974;DHT22;11653;50.848;4.584;2022-09-29T08:15:27;21.60;93.80
22974;DHT22;11653;50.848;4.584;2022-09-29T08:17:54;22.20;91.40
22974;DHT22;11653;50.848;4.584;2022-09-29T08:20:22;22.80;90.00
22974;DHT22;11653;50.848;4.584;2022-09-29T08:22:48;24.00;86.60
22974;DHT22;11653;50.848;4.584;2022-09-29T08:25:17;24.30;82.30
22974;DHT22;11653;50.848;4.584;2022-09-29T08:27:43;24.60;80.00
22974;DHT22;11653;50.848;4.584;2022-09-29T08:30:10;25.20;77.50
22974;DHT22;11653;50.848;4.584;2022-09-29T08:32:36;25.80;74.50
22974;DHT22;11653;50.848;4.584;2022-09-29T08:35:04;25.90;72.90
22974;DHT22;11653;50.848;4.584;2022-09-29T08:37:29;26.40;72.50
22974;DHT22;11653;50.848;4.584;2022-09-29T08:39:55;26.60;70.80
22974;DHT22;11653;50.848;4.584;2022-09-29T08:45:48;26.60;67.70
22974;DHT22;11653;50.848;4.584;2022-09-29T08:48:20;26.40;69.00
22974;DHT22;11653;50.848;4.584;2022-09-29T08:51:27;26.30;69.10
22974;DHT22;11653;50.848;4.584;2022-09-29T08:53:55;26.50;68.70
22974;DHT22;11653;50.848;4.584;2022-09-29T08:56:23;26.90;67.00
22974;DHT22;11653;50.848;4.584;2022-09-29T08:58:51;27.40;66.50
22974;DHT22;11653;50.848;4.584;2022-09-29T09:01:34;28.10;65.80
22974;DHT22;11653;50.848;4.584;2022-09-29T09:07:27;29.20;61.40
22974;DHT22;11653;50.848;4.584;2022-09-29T09:18:08;29.00;58.20
22974;DHT22;11653;50.848;4.584;2022-09-29T09:26:07;28.90;58.40
22974;DHT22;11653;50.848;4.584;2022-09-29T09:28:55;29.20;57.50
22974;DHT22;11653;50.848;4.584;2022-09-29T09:34:06;30.40;55.50
22974;DHT22;11653;50.848;4.584;2022-09-29T09:36:39;31.00;54.50
22974;DHT22;11653;50.848;4.584;2022-09-29T09:39:12;31.20;53.70
22974;DHT22;11653;50.848;4.584;2022-09-29T09:41:41;31.50;52.80
22974;DHT22;11653;50.848;4.584;2022-09-29T09:44:21;31.60;51.90
22974;DHT22;11653;50.848;4.584;2022-09-29T09:46:52;31.90;51.60
22974;DHT22;11653;50.848;4.584;2022-09-29T09:49:34;32.00;50.30
22974;DHT22;11653;50.848;4.584;2022-09-29T09:52:03;32.20;50.40
22974;DHT22;11653;50.848;4.584;2022-09-29T09:58:09;32.40;49.40
22974;DHT22;11653;50.848;4.584;2022-09-29T10:00:45;32.20;49.10
22974;DHT22;11653;50.848;4.584;2022-09-29T10:03:12;32.00;49.30
22974;DHT22;11653;50.848;4.584;2022-09-29T10:05:41;31.70;48.50
22974;DHT22;11653;50.848;4.584;2022-09-29T10:08:14;31.30;49.40
22974;DHT22;11653;50.848;4.584;2022-09-29T10:10:41;31.50;50.00
22974;DHT22;11653;50.848;4.584;2022-09-29T10:13:12;31.80;48.50
22974;DHT22;11653;50.848;4.584;2022-09-29T10:16:06;31.00;50.40
22974;DHT22;11653;50.848;4.584;2022-09-29T10:18:43;31.40;50.20
22974;DHT22;11653;50.848;4.584;2022-09-29T10:21:41;31.40;49.80
22974;DHT22;11653;50.848;4.584;2022-09-29T10:24:30;31.80;48.70
22974;DHT22;11653;50.848;4.584;2022-09-29T10:26:58;32.40;47.60
22974;DHT22;11653;50.848;4.584;2022-09-29T10:32:11;31.20;48.00
22974;DHT22;11653;50.848;4.584;2022-09-29T10:34:40;31.00;49.40
22974;DHT22;11653;50.848;4.584;2022-09-29T10:37:23;31.20;48.30
22974;DHT22;11653;50.848;4.584;2022-09-29T10:39:50;31.40;49.40
22974;DHT22;11653;50.848;4.584;2022-09-29T10:42:31;31.30;50.20
22974;DHT22;11653;50.848;4.584;2022-09-29T10:48:25;31.10;48.30
22974;DHT22;11653;50.848;4.584;2022-09-29T10:53:40;30.30;50.60
22974;DHT22;11653;50.848;4.584;2022-09-29T10:56:16;30.30;50.40
22974;DHT22;11653;50.848;4.584;2022-09-29T10:59:02;30.30;49.70
22974;DHT22;11653;50.848;4.584;2022-09-29T11:01:30;30.50;50.30
22974;DHT22;11653;50.848;4.584;2022-09-29T11:04:05;30.60;49.50
22974;DHT22;11653;50.848;4.584;2022-09-29T11:06:40;31.50;48.80
22974;DHT22;11653;50.848;4.584;2022-09-29T11:09:26;31.60;47.80
22974;DHT22;11653;50.848;4.584;2022-09-29T11:11:57;31.60;48.20
22974;DHT22;11653;50.848;4.584;2022-09-29T11:14:29;31.90;47.60
22974;DHT22;11653;50.848;4.584;2022-09-29T11:16:59;32.00;47.50
22974;DHT22;11653;50.848;4.584;2022-09-29T11:19:28;31.80;47.10
22974;DHT22;11653;50.848;4.584;2022-09-29T11:22:19;31.50;48.80
22974;DHT22;11653;50.848;4.584;2022-09-29T11:30:20;30.00;49.10
22974;DHT22;11653;50.848;4.584;2022-09-29T11:52:31;22.80;63.40
22974;DHT22;11653;50.848;4.584;2022-09-29T11:58:18;21.70;68.00
22974;DHT22;11653;50.848;4.584;2022-09-29T12:01:06;22.00;68.50
22974;DHT22;11653;50.848;4.584;2022-09-29T12:06:20;24.60;60.30
22974;DHT22;11653;50.848;4.584;2022-09-29T12:09:11;25.10;58.80
22974;DHT22;11653;50.848;4.584;2022-09-29T12:17:15;22.90;63.90
22974;DHT22;11653;50.848;4.584;2022-09-29T12:19:43;21.80;66.10
22974;DHT22;11653;50.848;4.584;2022-09-29T12:22:14;21.20;70.90
22974;DHT22;11653;50.848;4.584;2022-09-29T12:24:50;20.70;70.00
22974;DHT22;11653;50.848;4.584;2022-09-29T12:27:34;20.40;73.40
22974;DHT22;11653;50.848;4.584;2022-09-29T12:30:13;20.10;73.60
22974;DHT22;11653;50.848;4.584;2022-09-29T12:32:51;20.00;75.40
22974;DHT22;11653;50.848;4.584;2022-09-29T12:40:40;22.30;70.80
22974;DHT22;11653;50.848;4.584;2022-09-29T12:43:31;23.20;66.30
22974;DHT22;11653;50.848;4.584;2022-09-29T12:46:11;22.90;62.40
22974;DHT22;11653;50.848;4.584;2022-09-29T12:49:03;22.50;64.20
22974;DHT22;11653;50.848;4.584;2022-09-29T12:51:44;22.30;66.90
22974;DHT22;11653;50.848;4.584;2022-09-29T12:57:17;21.80;67.60
22974;DHT22;11653;50.848;4.584;2022-09-29T13:00:06;21.60;71.50
22974;DHT22;11653;50.848;4.584;2022-09-29T13:27:51;21.30;72.00
22974;DHT22;11653;50.848;4.584;2022-09-29T13:30:20;21.10;72.40
22974;DHT22;11653;50.848;4.584;2022-09-29T13:35:44;20.70;71.30
22974;DHT22;11653;50.848;4.584;2022-09-29T13:38:32;20.50;72.80
22974;DHT22;11653;50.848;4.584;2022-09-29T13:41:37;20.50;73.60
22974;DHT22;11653;50.848;4.584;2022-09-29T13:44:20;20.40;72.80
22974;DHT22;11653;50.848;4.584;2022-09-29T13:46:48;20.10;74.20
22974;DHT22;11653;50.848;4.584;2022-09-29T13:49:28;19.80;76.70
22974;DHT22;11653;50.848;4.584;2022-09-29T13:57:17;19.50;80.50
22974;DHT22;11653;50.848;4.584;2022-09-29T14:04:57;19.40;80.20
22974;DHT22;11653;50.848;4.584;2022-09-29T14:07:48;19.40;81.10
22974;DHT22;11653;50.848;4.584;2022-09-29T14:15:37;19.00;85.30
22974;DHT22;11653;50.848;4.584;2022-09-29T14:18:10;18.80;83.20
22974;DHT22;11653;50.848;4.584;2022-09-29T14:20:57;18.70;85.00
22974;DHT22;11653;50.848;4.584;2022-09-29T14:29:20;18.40;90.90
22974;DHT22;11653;50.848;4.584;2022-09-29T14:31:50;18.30;92.80
22974;DHT22;11653;50.848;4.584;2022-09-29T14:34:19;18.10;94.30
22974;DHT22;11653;50.848;4.584;2022-09-29T14:36:47;18.10;95.60
22974;DHT22;11653;50.848;4.584;2022-09-29T14:39:14;18.00;96.30
22974;DHT22;11653;50.848;4.584;2022-09-29T14:41:46;17.90;97.20
22974;DHT22;11653;50.848;4.584;2022-09-29T14:44:26;18.00;97.00
22974;DHT22;11653;50.848;4.584;2022-09-29T14:53:33;18.10;98.20
22974;DHT22;11653;50.848;4.584;2022-09-29T14:59:40;18.40;97.20
22974;DHT22;11653;50.848;4.584;2022-09-29T15:04:43;18.60;95.20
22974;DHT22;11653;50.848;4.584;2022-09-29T15:07:17;18.70;93.30
22974;DHT22;11653;50.848;4.584;2022-09-29T15:09:54;18.70;93.70
22974;DHT22;11653;50.848;4.584;2022-09-29T15:12:26;18.70;94.20
22974;DHT22;11653;50.848;4.584;2022-09-29T15:14:53;18.70;94.00
22974;DHT22;11653;50.848;4.584;2022-09-29T15:25:34;18.50;95.70
22974;DHT22;11653;50.848;4.584;2022-09-29T15:30:55;18.50;95.20
22974;DHT22;11653;50.848;4.584;2022-09-29T15:33:29;18.40;94.60
22974;DHT22;11653;50.848;4.584;2022-09-29T15:40:56;18.40;94.20
22974;DHT22;11653;50.848;4.584;2022-09-29T15:43:25;18.50;95.50
22974;DHT22;11653;50.848;4.584;2022-09-29T15:45:57;18.50;96.90
22974;DHT22;11653;50.848;4.584;2022-09-29T15:48:24;18.50;96.90
22974;DHT22;11653;50.848;4.584;2022-09-29T15:50:51;18.50;95.90
22974;DHT22;11653;50.848;4.584;2022-09-29T15:53:20;18.50;96.90
22974;DHT22;11653;50.848;4.584;2022-09-29T15:55:48;18.50;96.50
22974;DHT22;11653;50.848;4.584;2022-09-29T15:58:35;18.50;96.50
22974;DHT22;11653;50.848;4.584;2022-09-29T16:01:04;18.50;97.60
22974;DHT22;11653;50.848;4.584;2022-09-29T16:03:51;18.50;97.90
22974;DHT22;11653;50.848;4.584;2022-09-29T16:06:34;18.40;97.20
22974;DHT22;11653;50.848;4.584;2022-09-29T16:09:05;18.40;97.30
22974;DHT22;11653;50.848;4.584;2022-09-29T16:11:37;18.30;98.40
22974;DHT22;11653;50.848;4.584;2022-09-29T16:14:08;18.20;99.30
22974;DHT22;11653;50.848;4.584;2022-09-29T16:16:41;18.10;99.10
22974;DHT22;11653;50.848;4.584;2022-09-29T16:19:27;18.00;99.60
22974;DHT22;11653;50.848;4.584;2022-09-29T16:22:00;17.90;99.90
22974;DHT22;11653;50.848;4.584;2022-09-29T16:24:30;17.80;99.90
22974;DHT22;11653;50.848;4.584;2022-09-29T16:26:58;17.80;99.10
22974;DHT22;11653;50.848;4.584;2022-09-29T16:29:34;17.70;99.30
22974;DHT22;11653;50.848;4.584;2022-09-29T16:35:36;17.30;99.90
22974;DHT22;11653;50.848;4.584;2022-09-29T16:40:51;17.20;99.90
22974;DHT22;11653;50.848;4.584;2022-09-29T16:43:27;17.00;99.90
22974;DHT22;11653;50.848;4.584;2022-09-29T16:45:56;17.00;99.90
22974;DHT22;11653;50.848;4.584;2022-09-29T16:48:25;16.80;99.90
22974;DHT22;11653;50.848;4.584;2022-09-29T16:50:56;16.70;99.90
22974;DHT22;11653;50.848;4.584;2022-09-29T16:53:30;16.50;99.90
22974;DHT22;11653;50.848;4.584;2022-09-29T16:55:57;16.40;99.90
22974;DHT22;11653;50.848;4.584;2022-09-29T16:58:24;16.20;99.90
22974;DHT22;11653;50.848;4.584;2022-09-29T17:00:51;16.10;99.90
22974;DHT22;11653;50.848;4.584;2022-09-29T17:03:16;16.00;99.90
22974;DHT22;11653;50.848;4.584;2022-09-29T17:05:44;15.90;99.90
22974;DHT22;11653;50.848;4.584;2022-09-29T17:08:20;15.70;99.90
22974;DHT22;11653;50.848;4.584;2022-09-29T17:10:51;15.70;99.90
22974;DHT22;11653;50.848;4.584;2022-09-29T17:13:17;15.60;99.90
22974;DHT22;11653;50.848;4.584;2022-09-29T17:15:46;15.50;99.90
22974;DHT22;11653;50.848;4.584;2022-09-29T17:18:16;15.40;99.90
22974;DHT22;11653;50.848;4.584;2022-09-29T17:20:42;15.20;99.90
22974;DHT22;11653;50.848;4.584;2022-09-29T17:23:08;15.10;99.90
22974;DHT22;11653;50.848;4.584;2022-09-29T17:25:37;14.90;99.90
22974;DHT22;11653;50.848;4.584;2022-09-29T17:28:14;14.70;99.90
22974;DHT22;11653;50.848;4.584;2022-09-29T17:30:43;14.60;99.90
22974;DHT22;11653;50.848;4.584;2022-09-29T17:33:11;14.50;99.90
22974;DHT22;11653;50.848;4.584;2022-09-29T17:35:39;14.40;99.90
22974;DHT22;11653;50.848;4.584;2022-09-29T17:38:05;14.30;99.90
22974;DHT22;11653;50.848;4.584;2022-09-29T17:41:05;14.20;99.90
22974;DHT22;11653;50.848;4.584;2022-09-29T17:43:32;14.10;99.90
22974;DHT22;11653;50.848;4.584;2022-09-29T17:45:59;14.00;99.90
22974;DHT22;11653;50.848;4.584;2022-09-29T17:48:28;13.90;99.90
22974;DHT22;11653;50.848;4.584;2022-09-29T17:50:54;13.80;99.90
22974;DHT22;11653;50.848;4.584;2022-09-29T17:53:22;13.70;99.90
22974;DHT22;11653;50.848;4.584;2022-09-29T17:55:50;13.60;99.90
22974;DHT22;11653;50.848;4.584;2022-09-29T17:58:17;13.50;99.90
22974;DHT22;11653;50.848;4.584;2022-09-29T18:00:52;13.40;99.90
22974;DHT22;11653;50.848;4.584;2022-09-29T18:03:19;13.30;99.90
22974;DHT22;11653;50.848;4.584;2022-09-29T18:05:51;13.20;99.90
22974;DHT22;11653;50.848;4.584;2022-09-29T18:08:22;13.20;99.90
22974;DHT22;11653;50.848;4.584;2022-09-29T18:10:51;13.20;99.90
22974;DHT22;11653;50.848;4.584;2022-09-29T18:13:18;13.10;99.90
22974;DHT22;11653;50.848;4.584;2022-09-29T18:15:44;13.00;99.90
22974;DHT22;11653;50.848;4.584;2022-09-29T18:18:13;12.90;99.90
22974;DHT22;11653;50.848;4.584;2022-09-29T18:20:40;12.70;99.90
22974;DHT22;11653;50.848;4.584;2022-09-29T18:23:06;12.70;99.90
22974;DHT22;11653;50.848;4.584;2022-09-29T18:25:33;12.70;99.90
22974;DHT22;11653;50.848;4.584;2022-09-29T18:28:00;12.60;99.90
22974;DHT22;11653;50.848;4.584;2022-09-29T18:30:31;12.50;99.90
22974;DHT22;11653;50.848;4.584;2022-09-29T18:32:58;12.30;99.90
22974;DHT22;11653;50.848;4.584;2022-09-29T18:35:29;12.20;99.90
22974;DHT22;11653;50.848;4.584;2022-09-29T18:37:56;12.20;99.90
22974;DHT22;11653;50.848;4.584;2022-09-29T18:40:23;12.10;99.90
22974;DHT22;11653;50.848;4.584;2022-09-29T18:42:50;12.00;99.90
22974;DHT22;11653;50.848;4.584;2022-09-29T18:45:19;12.00;99.90
22974;DHT22;11653;50.848;4.584;2022-09-29T18:47:48;12.00;99.90
22974;DHT22;11653;50.848;4.584;2022-09-29T18:50:17;11.80;99.90
22974;DHT22;11653;50.848;4.584;2022-09-29T18:52:46;11.70;99.90
22974;DHT22;11653;50.848;4.584;2022-09-29T18:55:13;11.70;99.90
22974;DHT22;11653;50.848;4.584;2022-09-29T18:57:41;11.70;99.90
22974;DHT22;11653;50.848;4.584;2022-09-29T19:00:10;11.60;99.90
22974;DHT22;11653;50.848;4.584;2022-09-29T19:02:37;11.50;99.90
22974;DHT22;11653;50.848;4.584;2022-09-29T19:05:03;11.50;99.90
22974;DHT22;11653;50.848;4.584;2022-09-29T19:07:31;11.50;99.90
22974;DHT22;11653;50.848;4.584;2022-09-29T19:09:56;11.40;99.90
22974;DHT22;11653;50.848;4.584;2022-09-29T19:12:22;11.30;99.90
22974;DHT22;11653;50.848;4.584;2022-09-29T19:14:52;11.30;99.90
22974;DHT22;11653;50.848;4.584;2022-09-29T19:17:25;11.20;99.90
22974;DHT22;11653;50.848;4.584;2022-09-29T19:19:51;11.20;99.90